A08

Vaiden Field Airport

Marion, Alabama, USA
METAR KA08 210935Z AUTO 00000KT 10SM CLR 25/25 A2986 RMK AO2 T02480248
Observed Flight Rules
Jul-21 @ 09:35 UTC (17 minutes ago) Visual Flight Rules
Visibility Clouds
10 miles
  • Clear skies
Temperatures Readings
Current 25°C / 77°F
Dewpoint 25°C / 77°F
Humidity 100%
Altimeter 29.86" Hg
Pressure 1011 hPa
Elevation 69
METAR KA08 210935Z AUTO 00000KT 10SM CLR 25/25 A2986 RMK AO2 T02480248
Observed Flight Rules
Jul-21 @ 09:35 UTC
(17 minutes ago)
VFR
Clouds
  • Clear skies
Temperature Dewpoint
25°C / 77°F 25°C / 77°F
Humidity Altimeter Pressure
100% 29.86" Hg 1011 hPa